.
WxDataArchive / Data Records for 2010-10-15
2010-10-14 October 2010 2010-10-16

Data Records for Friday, 15 October 2010

Time	Temp	Chill	HIndex	Humid	Dewpt	 Wind 	HiWind	WindDir	Rain 	Barom 
-----	----	-----	------	-----	-----	------	------	-------	-----	----- 
00:00	52.0	52.0	52.0	52	34.9	0	0	---	0.00	29.821 
00:05	51.9	51.9	51.9	51	34.3	0	0	---	0.00	29.821 
00:10	51.9	51.9	51.9	51	34.3	0	0	---	0.00	29.821 
00:15	52.0	52.0	52.0	51	34.4	0	1	248	0.00	29.809 
00:20	52.2	52.2	52.2	51	34.6	0	1	248	0.00	29.809 
00:25	52.3	52.3	52.3	51	34.7	0	1	248	0.00	29.809 
00:30	52.5	52.5	52.5	50	34.4	0	1	248	0.00	29.806 
00:35	52.6	52.6	52.6	51	35.0	0	3	248	0.00	29.806 
00:40	52.9	52.9	52.9	51	35.3	0	1	248	0.00	29.806 
00:45	53.1	53.1	53.1	51	35.5	0	2	248	0.00	29.790 
00:50	53.1	53.1	53.1	51	35.5	0	1	248	0.00	29.790 
00:55	53.2	53.2	53.2	51	35.5	0	0	---	0.00	29.790 
01:00	53.2	53.2	53.2	50	35.0	0	0	---	0.00	29.790 
01:05	53.2	53.2	53.2	50	35.0	0	0	---	0.00	29.790 
01:10	53.2	53.2	53.2	51	35.5	0	0	---	0.00	29.790 
01:15	53.2	53.2	53.2	53	36.5	0	0	---	0.00	29.777 
01:20	53.1	53.1	53.1	57	38.3	0	0	---	0.00	29.777 
01:25	52.8	52.8	52.8	58	38.4	0	1	248	0.00	29.777 
01:30	52.8	52.8	52.8	58	38.4	0	3	270	0.00	29.773 
01:35	52.8	52.8	52.8	61	39.7	0	1	270	0.00	29.773 
01:40	53.6	53.6	53.6	57	38.7	3	7	270	0.00	29.773 
01:45	54.2	54.2	54.2	61	41.0	0	1	270	0.00	29.765 
01:50	54.1	54.1	54.1	61	41.0	0	1	270	0.00	29.765 
01:55	53.9	53.9	53.9	61	40.8	0	2	270	0.00	29.765 
02:00	53.8	53.8	53.8	61	40.7	1	3	270	0.00	29.756 
02:05	53.5	53.5	53.5	62	40.8	2	5	248	0.01	29.756 
02:10	53.5	53.5	53.5	63	41.2	3	5	248	0.00	29.756 
02:15	52.9	52.9	52.9	65	41.5	2	5	248	0.01	29.750 
02:20	52.3	52.3	52.3	67	41.7	1	4	248	0.00	29.750 
02:25	52.0	52.0	52.0	68	41.8	1	7	248	0.01	29.750 
02:30	52.3	52.3	52.3	70	42.8	5	10	270	0.01	29.761 
02:35	51.9	51.9	51.9	72	43.2	3	11	270	0.03	29.761 
02:40	51.3	51.3	51.3	76	44.0	3	7	270	0.03	29.761 
02:45	50.7	50.7	50.7	78	44.1	2	5	270	0.02	29.773 
02:50	50.4	50.4	50.4	77	43.5	2	6	292	0.03	29.773 
02:55	49.9	49.9	49.9	79	43.6	0	4	270	0.02	29.773 
03:00	49.6	49.6	49.6	81	44.0	0	1	270	0.00	29.757 
03:05	49.5	49.5	49.5	82	44.2	0	1	270	0.01	29.757 
03:10	49.4	49.4	49.4	83	44.5	0	1	292	0.00	29.757 
03:15	49.2	49.2	49.2	84	44.6	0	1	292	0.00	29.753 
03:20	49.2	49.2	49.2	85	44.9	0	3	135	0.00	29.753 
03:25	49.4	49.4	49.4	85	45.1	0	2	135	0.00	29.753 
03:30	49.4	49.4	49.4	86	45.4	0	1	135	0.00	29.742 
03:35	49.4	49.4	49.4	85	45.1	0	2	135	0.00	29.742 
03:40	49.4	49.4	49.4	86	45.4	0	1	135	0.00	29.742 
03:45	49.4	49.4	49.4	86	45.4	0	1	135	0.00	29.742 
03:50	49.2	49.2	49.2	86	45.2	0	3	135	0.00	29.742 
03:55	49.4	49.4	49.4	86	45.4	0	6	112	0.00	29.742 
04:00	49.2	49.2	49.2	86	45.2	0	2	22	0.01	29.743 
04:05	49.1	49.1	49.1	86	45.1	1	2	0	0.00	29.743 
04:10	49.1	49.1	49.1	86	45.1	1	4	0	0.00	29.743 
04:15	48.9	48.9	48.9	86	44.9	1	6	292	0.00	29.742 
04:20	48.8	48.8	48.8	86	44.8	1	4	90	0.00	29.742 
04:25	48.6	48.6	48.6	86	44.6	0	2	270	0.00	29.742 
04:30	48.6	48.6	48.6	87	44.9	0	2	270	0.00	29.745 
04:35	48.5	48.5	48.5	87	44.8	0	1	158	0.00	29.745 
04:40	48.5	48.5	48.5	88	45.1	0	2	180	0.00	29.745 
04:45	48.5	48.5	48.5	88	45.1	0	1	90	0.00	29.746 
04:50	48.3	48.3	48.3	88	44.9	0	1	90	0.00	29.746 
04:55	48.2	48.2	48.2	88	44.8	0	2	90	0.00	29.746 
05:00	48.0	48.0	48.0	88	44.6	0	0	---	0.00	29.753 
05:05	47.9	47.9	47.9	88	44.5	0	0	---	0.00	29.753 
05:10	47.7	47.7	47.7	88	44.3	0	1	90	0.00	29.753 
05:15	47.6	47.6	47.6	88	44.2	0	1	90	0.00	29.754 
05:20	47.6	47.6	47.6	89	44.5	0	0	---	0.00	29.754 
05:25	47.6	47.6	47.6	89	44.5	0	1	90	0.00	29.754 
05:30	47.6	47.6	47.6	89	44.5	0	0	---	0.00	29.764 
05:35	47.6	47.6	47.6	89	44.5	0	0	---	0.00	29.764 
05:40	47.6	47.6	47.6	89	44.5	0	0	---	0.00	29.764 
05:45	47.6	47.6	47.6	90	44.8	0	0	---	0.00	29.780 
05:50	47.6	47.6	47.6	90	44.8	0	1	90	0.00	29.780 
05:55	47.4	47.4	47.4	90	44.6	0	0	---	0.00	29.780 
06:00	47.1	47.1	47.1	90	44.3	0	0	---	0.00	29.780 
06:05	46.8	46.8	46.8	90	44.0	0	0	---	0.00	29.780 
06:10	46.7	46.7	46.7	90	43.9	0	0	---	0.00	29.780 
06:15	46.4	46.4	46.4	90	43.6	0	0	---	0.00	29.796 
06:20	46.2	46.2	46.2	91	43.7	0	0	---	0.00	29.796 
06:25	46.1	46.1	46.1	91	43.6	0	1	90	0.00	29.796 
06:30	46.1	46.1	46.1	91	43.6	0	0	---	0.00	29.800 
06:35	46.0	46.0	46.0	91	43.5	0	1	90	0.00	29.800 
06:40	45.8	45.8	45.8	91	43.3	0	1	90	0.00	29.800 
06:45	45.8	45.8	45.8	91	43.3	1	4	292	0.00	29.811 
06:50	46.0	46.0	46.0	90	43.2	1	3	292	0.00	29.811 
06:55	46.1	46.1	46.1	90	43.3	1	3	0	0.00	29.811 
07:00	46.0	46.0	46.0	89	42.9	0	2	0	0.00	29.822 
07:05	45.8	45.8	45.8	89	42.7	0	2	0	0.00	29.822 
07:10	45.7	45.7	45.7	89	42.6	0	2	270	0.00	29.822 
07:15	45.5	45.5	45.5	89	42.4	0	1	338	0.00	29.830 
07:20	45.4	45.4	45.4	89	42.3	0	1	338	0.00	29.830 
07:25	45.2	45.2	45.2	90	42.4	0	1	338	0.00	29.830 
07:30	45.1	45.1	45.1	90	42.3	0	0	---	0.00	29.829 
07:35	44.9	44.9	44.9	90	42.1	0	1	338	0.00	29.829 
07:40	44.8	44.8	44.8	90	42.0	0	2	315	0.00	29.829 
07:45	44.6	44.6	44.6	90	41.9	0	1	315	0.00	29.835 
07:50	44.5	44.5	44.5	91	42.0	0	0	---	0.00	29.835 
07:55	44.5	44.5	44.5	91	42.0	0	0	---	0.00	29.835 
08:00	44.3	44.3	44.3	91	41.8	0	0	---	0.00	29.849 
08:05	44.2	44.2	44.2	91	41.7	0	1	315	0.00	29.849 
08:10	44.2	44.2	44.2	91	41.7	0	1	315	0.00	29.849 
08:15	44.2	44.2	44.2	91	41.7	0	0	---	0.00	29.866 
08:20	44.3	44.3	44.3	92	42.1	0	1	315	0.00	29.866 
08:25	44.5	44.5	44.5	92	42.3	0	2	315	0.00	29.866 
08:30	44.6	44.6	44.6	92	42.4	0	1	315	0.00	29.881 
08:35	44.6	44.6	44.6	92	42.4	0	1	315	0.00	29.881 
08:40	44.6	44.6	44.6	92	42.4	0	1	315	0.00	29.881 
08:45	44.8	44.8	44.8	92	42.6	0	1	315	0.00	29.888 
08:50	45.1	45.1	45.1	92	42.9	0	2	315	0.00	29.888 
08:55	45.2	45.2	45.2	92	43.0	0	1	315	0.00	29.888 
09:00	45.5	45.5	45.5	92	43.3	0	2	315	0.00	29.904 
09:05	45.7	45.7	45.7	91	43.2	0	2	315	0.01	29.904 
09:10	46.0	46.0	46.0	91	43.5	0	1	315	0.00	29.904 
09:15	46.1	46.1	46.1	91	43.6	0	2	315	0.00	29.913 
09:20	46.4	46.4	46.4	90	43.6	0	2	315	0.00	29.913 
09:25	46.7	46.7	46.7	90	43.9	0	1	315	0.00	29.913 
09:30	47.0	47.0	47.0	89	43.9	0	3	315	0.00	29.917 
09:35	47.3	47.3	47.3	88	43.9	0	2	315	0.00	29.917 
09:40	47.7	47.7	47.7	88	44.3	0	2	315	0.00	29.917 
09:45	48.2	48.2	48.2	87	44.5	0	2	45	0.00	29.924 
09:50	48.5	48.5	48.5	86	44.5	0	1	45	0.00	29.924 
09:55	48.9	48.9	48.9	84	44.3	0	2	45	0.00	29.924 
10:00	49.6	49.6	49.6	82	44.3	0	2	45	0.00	29.928 
10:05	50.2	50.2	50.2	79	43.9	0	3	248	0.00	29.928 
10:10	50.8	50.8	50.8	77	43.9	0	3	248	0.00	29.928 
10:15	51.3	51.3	51.3	76	44.0	0	1	248	0.00	29.937 
10:20	51.7	51.7	51.7	73	43.3	0	2	270	0.00	29.937 
10:25	52.2	52.2	52.2	73	43.8	0	1	315	0.00	29.937 
10:30	52.5	52.5	52.5	71	43.4	1	3	338	0.00	29.941 
10:35	52.9	52.9	52.9	70	43.4	0	3	338	0.00	29.941 
10:40	53.6	53.6	53.6	69	43.7	1	7	112	0.00	29.941 
10:45	53.9	53.9	53.9	67	43.2	0	3	315	0.00	29.943 
10:50	54.2	54.2	54.2	66	43.1	1	4	112	0.00	29.943 
10:55	54.7	54.7	54.7	66	43.6	0	3	90	0.00	29.943 
11:00	54.8	54.8	54.8	63	42.4	1	4	338	0.00	29.952 
11:05	55.0	55.0	55.0	64	43.0	1	4	292	0.00	29.952 
11:10	55.6	55.6	55.6	63	43.2	0	1	292	0.00	29.952 
11:15	55.7	55.7	55.7	61	42.5	0	3	338	0.00	29.955 
11:20	55.7	55.7	55.7	59	41.6	1	3	315	0.00	29.955 
11:25	55.9	55.9	55.9	60	42.2	1	4	292	0.00	29.955 
11:30	56.2	56.2	56.2	61	42.9	0	2	338	0.00	29.961 
11:35	56.7	56.7	56.7	60	43.0	0	3	338	0.00	29.961 
11:40	56.7	56.7	56.7	58	42.1	1	4	292	0.00	29.961 
11:45	56.6	56.6	56.6	59	42.4	1	3	292	0.00	29.967 
11:50	56.7	56.7	56.7	58	42.1	1	3	315	0.00	29.967 
11:55	57.0	57.0	57.0	58	42.4	1	3	90	0.00	29.967 
12:00	57.2	57.2	57.2	58	42.6	1	3	338	0.00	29.967 
12:05	57.5	57.5	57.5	58	42.8	0	3	338	0.00	29.967 
12:10	57.6	57.6	57.6	57	42.5	1	4	315	0.00	29.967 
12:15	57.8	57.8	57.8	57	42.7	1	3	315	0.00	29.969 
12:20	58.3	58.3	58.3	57	43.1	0	2	0	0.00	29.969 
12:25	58.1	58.1	58.1	54	41.5	1	4	315	0.00	29.969 
12:30	58.0	58.0	58.0	55	41.9	1	3	338	0.00	29.975 
12:35	58.1	58.1	58.1	55	42.0	1	3	0	0.00	29.975 
12:40	58.3	58.3	58.3	55	42.2	2	3	315	0.00	29.975 
12:45	58.6	58.6	58.6	55	42.5	1	3	315	0.00	29.979 
12:50	58.0	58.0	58.0	55	41.9	1	6	292	0.00	29.979 
12:55	57.5	57.5	57.5	56	41.9	1	3	0	0.00	29.979 
13:00	57.8	57.8	57.8	55	41.7	1	2	292	0.00	29.981 
13:05	58.4	58.4	58.4	53	41.3	2	5	112	0.00	29.981 
13:10	57.8	57.8	57.8	55	41.7	1	3	315	0.00	29.981 
13:15	58.0	58.0	58.0	56	42.4	1	4	315	0.00	29.980 
13:20	58.4	58.4	58.4	54	41.8	2	5	292	0.00	29.980 
13:25	58.4	58.4	58.4	52	40.8	1	5	0	0.00	29.980 
13:30	58.7	58.7	58.7	53	41.6	1	4	292	0.00	29.981 
13:35	59.2	59.2	59.2	53	42.1	1	3	315	0.00	29.981 
13:40	59.3	59.3	59.3	50	40.7	1	4	315	0.00	29.981 
13:45	59.3	59.3	59.3	51	41.2	2	6	338	0.00	29.981 
13:50	59.5	59.5	59.5	51	41.4	2	4	292	0.00	29.981 
13:55	59.8	59.8	59.8	49	40.6	1	4	338	0.00	29.981 
14:00	59.6	59.6	59.6	49	40.4	1	3	338	0.00	29.981 
14:05	59.3	59.3	59.3	50	40.7	1	5	338	0.00	29.981 
14:10	59.0	59.0	59.0	51	40.9	1	4	292	0.00	29.981 
14:15	59.6	59.6	59.6	52	42.0	0	3	338	0.00	29.985 
14:20	59.6	59.6	59.6	50	40.9	1	3	338	0.00	29.985 
14:25	59.5	59.5	59.5	48	39.8	1	4	292	0.00	29.985 
14:30	60.1	60.1	60.1	48	40.3	1	4	292	0.00	29.985 
14:35	60.1	60.1	60.1	47	39.8	2	7	270	0.00	29.985 
14:40	59.6	59.6	59.6	47	39.3	2	4	315	0.00	29.985 
14:45	59.8	59.8	59.8	49	40.6	1	3	315	0.00	29.990 
14:50	60.5	60.5	60.5	46	39.6	1	5	315	0.00	29.990 
14:55	60.1	60.1	60.1	46	39.2	1	3	315	0.00	29.990 
15:00	60.4	60.4	60.4	47	40.1	1	4	315	0.00	29.994 
15:05	60.4	60.4	60.4	45	39.0	1	2	315	0.00	29.994 
15:10	59.8	59.8	59.8	45	38.4	1	3	315	0.00	29.994 
15:15	59.6	59.6	59.6	46	38.8	0	3	338	0.00	30.000 
15:20	59.8	59.8	59.8	46	39.0	1	2	0	0.00	30.000 
15:25	59.6	59.6	59.6	46	38.8	0	2	0	0.00	30.000 
15:30	59.6	59.6	59.6	45	38.2	1	4	0	0.00	30.009 
15:35	59.8	59.8	59.8	45	38.4	1	4	338	0.00	30.009 
15:40	60.4	60.4	60.4	45	39.0	1	4	338	0.00	30.009 
15:45	60.7	60.7	60.7	43	38.1	1	3	338	0.00	30.011 
15:50	60.2	60.2	60.2	44	38.2	2	5	292	0.00	30.011 
15:55	59.8	59.8	59.8	45	38.4	1	4	315	0.00	30.011 
16:00	59.5	59.5	59.5	46	38.7	0	2	315	0.00	30.016 
16:05	59.3	59.3	59.3	46	38.5	1	3	338	0.00	30.016 
16:10	59.5	59.5	59.5	46	38.7	1	3	338	0.00	30.016 
16:15	60.1	60.1	60.1	45	38.7	1	3	292	0.00	30.017 
16:20	60.5	60.5	60.5	43	37.9	1	4	338	0.00	30.017 
16:25	60.7	60.7	60.7	43	38.1	1	3	315	0.00	30.017 
16:30	60.9	60.9	60.9	43	38.3	1	3	315	0.00	30.023 
16:35	60.7	60.7	60.7	43	38.1	1	3	45	0.00	30.023 
16:40	60.2	60.2	60.2	41	36.4	1	5	45	0.00	30.023 
16:45	60.2	60.2	60.2	43	37.6	1	3	338	0.00	30.028 
16:50	60.5	60.5	60.5	42	37.3	1	5	0	0.00	30.028 
16:55	60.7	60.7	60.7	42	37.5	1	3	315	0.00	30.028 
17:00	60.9	60.9	60.9	41	37.0	1	5	292	0.00	30.029 
17:05	60.9	60.9	60.9	40	36.4	1	5	315	0.00	30.029 
17:10	61.0	61.0	61.0	41	37.1	1	4	292	0.00	30.029 
17:15	61.2	61.2	61.2	41	37.3	1	3	292	0.00	30.032 
17:20	61.2	61.2	61.2	40	36.7	1	2	22	0.00	30.032 
17:25	61.0	61.0	61.0	40	36.5	1	5	0	0.00	30.032 
17:30	60.7	60.7	60.7	41	36.9	1	2	22	0.00	30.038 
17:35	60.2	60.2	60.2	41	36.4	1	3	338	0.00	30.038 
17:40	59.8	59.8	59.8	41	36.1	1	4	338	0.00	30.038 
17:45	59.6	59.6	59.6	42	36.5	1	4	315	0.00	30.049 
17:50	59.5	59.5	59.5	42	36.4	1	4	315	0.00	30.049 
17:55	59.6	59.6	59.6	41	35.9	2	4	270	0.00	30.049 
18:00	59.6	59.6	59.6	41	35.9	0	2	292	0.00	30.051 
18:05	59.5	59.5	59.5	40	35.2	1	4	315	0.00	30.051 
18:10	59.3	59.3	59.3	41	35.6	1	4	315	0.00	30.051 
18:15	59.2	59.2	59.2	42	36.1	1	4	292	0.00	30.057 
18:20	58.9	58.9	58.9	42	35.9	1	3	315	0.00	30.057 
18:25	58.7	58.7	58.7	43	36.3	0	2	315	0.00	30.057 
18:30	58.4	58.4	58.4	43	36.0	1	3	315	0.00	30.059 
18:35	58.3	58.3	58.3	43	35.9	0	1	315	0.00	30.059 
18:40	58.1	58.1	58.1	44	36.3	0	2	315	0.00	30.059 
18:45	57.8	57.8	57.8	44	36.0	0	1	315	0.00	30.065 
18:50	57.5	57.5	57.5	45	36.3	0	1	315	0.00	30.065 
18:55	57.2	57.2	57.2	46	36.6	0	1	315	0.00	30.065 
19:00	56.7	56.7	56.7	47	36.7	0	1	315	0.00	30.069 
19:05	56.5	56.5	56.5	47	36.5	0	0	---	0.00	30.069 
19:10	56.0	56.0	56.0	48	36.6	0	0	---	0.00	30.069 
19:15	55.7	55.7	55.7	50	37.3	0	0	---	0.00	30.076 
19:20	55.3	55.3	55.3	50	37.0	0	0	---	0.00	30.076 
19:25	54.8	54.8	54.8	50	36.5	0	0	---	0.00	30.076 
19:30	54.4	54.4	54.4	51	36.7	0	0	---	0.00	30.079 
19:35	53.8	53.8	53.8	53	37.1	0	0	---	0.00	30.079 
19:40	53.3	53.3	53.3	54	37.1	0	0	---	0.00	30.079 
19:45	52.9	52.9	52.9	55	37.2	0	0	---	0.00	30.083 
19:50	52.3	52.3	52.3	57	37.5	0	0	---	0.00	30.083 
19:55	51.9	51.9	51.9	58	37.6	0	0	---	0.00	30.083 
20:00	51.4	51.4	51.4	58	37.1	0	0	---	0.00	30.088 
20:05	51.0	51.0	51.0	60	37.6	0	0	---	0.00	30.088 
20:10	50.4	50.4	50.4	61	37.5	0	0	---	0.00	30.088 
20:15	49.9	49.9	49.9	62	37.4	0	0	---	0.00	30.088 
20:20	49.5	49.5	49.5	63	37.4	0	0	---	0.00	30.088 
20:25	49.1	49.1	49.1	65	37.8	0	0	---	0.00	30.088 
20:30	48.8	48.8	48.8	65	37.6	0	0	---	0.00	30.091 
20:35	48.5	48.5	48.5	65	37.3	0	0	---	0.00	30.091 
20:40	48.0	48.0	48.0	67	37.6	0	0	---	0.00	30.091 
20:45	47.7	47.7	47.7	67	37.3	0	0	---	0.00	30.096 
20:50	47.4	47.4	47.4	69	37.7	0	0	---	0.00	30.096 
20:55	47.1	47.1	47.1	70	37.8	0	0	---	0.00	30.096 
21:00	46.8	46.8	46.8	71	37.9	0	0	---	0.00	30.105 
21:05	46.5	46.5	46.5	71	37.6	0	0	---	0.00	30.105 
21:10	46.4	46.4	46.4	72	37.9	0	0	---	0.00	30.105 
21:15	46.2	46.2	46.2	73	38.0	0	0	---	0.00	30.103 
21:20	46.0	46.0	46.0	73	37.8	0	0	---	0.00	30.103 
21:25	45.8	45.8	45.8	74	38.0	0	0	---	0.00	30.103 
21:30	45.7	45.7	45.7	75	38.2	0	0	---	0.00	30.105 
21:35	45.5	45.5	45.5	75	38.0	0	0	---	0.00	30.105 
21:40	45.4	45.4	45.4	76	38.3	0	0	---	0.00	30.105 
21:45	45.2	45.2	45.2	76	38.1	0	0	---	0.00	30.116 
21:50	45.1	45.1	45.1	77	38.3	0	0	---	0.00	30.116 
21:55	45.1	45.1	45.1	77	38.3	0	0	---	0.00	30.116 
22:00	44.9	44.9	44.9	77	38.1	0	0	---	0.00	30.122 
22:05	44.8	44.8	44.8	78	38.4	0	0	---	0.00	30.122 
22:10	44.6	44.6	44.6	78	38.2	0	0	---	0.00	30.122 
22:15	44.6	44.6	44.6	78	38.2	0	0	---	0.00	30.119 
22:20	44.8	44.8	44.8	79	38.7	0	0	---	0.00	30.119 
22:25	45.7	45.7	45.7	77	38.9	0	0	---	0.00	30.119 
22:30	46.2	46.2	46.2	75	38.7	0	0	---	0.00	30.122 
22:35	46.5	46.5	46.5	74	38.7	0	0	---	0.00	30.122 
22:40	47.1	47.1	47.1	73	38.9	0	0	---	0.00	30.122 
22:45	47.6	47.6	47.6	71	38.7	0	1	315	0.00	30.129 
22:50	48.0	48.0	48.0	71	39.1	0	0	---	0.00	30.129 
22:55	48.2	48.2	48.2	70	38.9	0	0	---	0.00	30.129 
23:00	48.2	48.2	48.2	70	38.9	0	0	---	0.00	30.131 
23:05	48.2	48.2	48.2	71	39.2	0	0	---	0.00	30.131 
23:10	48.2	48.2	48.2	71	39.2	0	0	---	0.00	30.131 
23:15	48.0	48.0	48.0	71	39.1	0	0	---	0.00	30.130 
23:20	48.0	48.0	48.0	72	39.4	0	0	---	0.00	30.130 
23:25	47.9	47.9	47.9	72	39.3	0	0	---	0.00	30.130 
23:30	47.7	47.7	47.7	73	39.5	0	0	---	0.00	30.131 
23:35	47.6	47.6	47.6	73	39.4	0	0	---	0.00	30.131 
23:40	47.3	47.3	47.3	74	39.4	0	0	---	0.00	30.131 
23:45	47.0	47.0	47.0	75	39.5	0	0	---	0.00	30.130 
23:50	46.7	46.7	46.7	76	39.5	0	0	---	0.00	30.130 
23:55	46.4	46.4	46.4	76	39.3	0	0	---	0.00	30.130 

CoCoRaHS
IN-AL-39
A2 Web Hosting
Creative Commons License
GoDaddy
search engine by freefind advanced

loaded 2018-11-17 23:35:11 • last modified 2010-11-18 10:43:29
Privacy PolicyDisclaimer
• wx.awcolley.com is powered by PmWiki v.2002016 •
• all content (unless otherwise noted) © 2018 A W Colley